| Date | Time | Temp. (oF) | Dew Point (oF) | Rel. Hum. (%) | Press. (in.) | Wind Dir. | Wind Speed (mph) | Hourly Rainfall (in.) |
|
|---|---|---|---|---|---|---|---|---|---|
| 1 | 07/03 | 00:00 | 83 | 75 | 79 | 29.97 | SSW | 1 | 0.00 |
| 2 | 07/02 | 23:00 | 84 | 76 | 78 | 29.97 | S | 2 | 0.00 |
| 3 | 07/02 | 22:00 | 85 | 75 | 74 | 29.97 | S | 3 | 0.00 |
| 4 | 07/02 | 21:00 | 89 | 76 | 68 | 29.95 | SSE | 2 | 0.00 |
| 5 | 07/02 | 20:00 | 91 | 75 | 60 | 29.93 | SW | 3 | 0.00 |
| 6 | 07/02 | 19:00 | 94 | 72 | 51 | 29.94 | SSW | 3 | 0.00 |
| 7 | 07/02 | 18:00 | 95 | 73 | 51 | 29.93 | S | 3 | 0.00 |
| 8 | 07/02 | 17:00 | 95 | 73 | 50 | 29.95 | SSW | 2 | 0.00 |
| 9 | 07/02 | 16:00 | 95 | 73 | 51 | 29.98 | SSW | 4 | 0.00 |
| 10 | 07/02 | 15:00 | 94 | 75 | 55 | 30.01 | NW | 1 | 0.00 |
| 11 | 07/02 | 14:00 | 93 | 75 | 57 | 30.01 | SSE | 3 | 0.00 |
| 12 | 07/02 | 13:00 | 92 | 75 | 59 | 30.04 | SSW | 3 | 0.00 |
| 13 | 07/02 | 12:00 | 90 | 77 | 66 | 30.06 | W | 4 | 0.00 |
| 14 | 07/02 | 11:00 | 87 | 75 | 69 | 30.07 | WSW | 2 | 0.00 |
| 15 | 07/02 | 10:00 | 83 | 74 | 75 | 30.07 | W | 3 | 0.00 |
| 16 | 07/02 | 09:00 | 79 | 72 | 81 | 30.08 | WSW | 2 | 0.00 |
| 17 | 07/02 | 08:00 | 74 | 71 | 91 | 30.09 | SSW | 0 | 0.00 |
| 18 | 07/02 | 07:00 | 71 | 68 | 93 | 30.10 | SSW | 1 | 0.00 |
| 19 | 07/02 | 06:00 | 71 | 67 | 89 | 30.08 | SSW | 0 | 0.00 |
| 20 | 07/02 | 05:00 | 72 | 67 | 85 | 30.08 | SSW | 1 | 0.00 |
| 21 | 07/02 | 04:00 | 74 | 68 | 82 | 30.08 | S | 1 | 0.00 |
| 22 | 07/02 | 03:00 | 74 | 67 | 80 | 30.09 | S | 1 | 0.00 |
| 23 | 07/02 | 02:00 | 76 | 68 | 77 | 30.09 | SSW | 3 | 0.00 |
| 24 | 07/02 | 01:00 | 76 | 68 | 77 | 30.09 | S | 2 | 0.00 |